CheckWX is a tool to help pilots better visualize weather data.  It is not intended as a substitute for an official pre-flight weather briefing.

21:15:01 UTC

EGKK METAR
London Gatwick Airport
London, United Kingdom
Current

25 mins ago

EGKK 192050Z 07004KT CAVOK 12/08 Q1030
Observed
Sep-19 @ 20:50 UTC
Wind
  • 070° at 4 KTS
Visibility
10,000+ meters
Flight Rules
VFR
Cloud Levels
  • Clear skies
Temperature
12°C / 54°F
Dewpoint
C / 46°F
Humidity
77%
Altimeter
30.41" Hg
Pressure
1029.92 hPa
Previous

55 mins ago

EGKK 192020Z 09005KT CAVOK 12/08 Q1030
Observed
Sep-19 @ 20:20 UTC
Wind
  • 090° at 5 KTS
Visibility
10,000+ meters
Flight Rules
VFR
Cloud Levels
  • Clear skies
Temperature
12°C / 54°F
Dewpoint
C / 46°F
Humidity
77%
Altimeter
30.41" Hg
Pressure
1029.92 hPa
Previous

1 hour ago

EGKK 191950Z 08007KT CAVOK 11/08 Q1030
Observed
Sep-19 @ 19:50 UTC
Wind
  • 080° at 7 KTS
Visibility
10,000+ meters
Flight Rules
VFR
Cloud Levels
  • Clear skies
Temperature
11°C / 52°F
Dewpoint
C / 46°F
Humidity
82%
Altimeter
30.41" Hg
Pressure
1029.92 hPa